Time;durP1;ratioP1;P1;durP2;ratioP2;P2;SDS_P1;SDS_P2;PMS_P1;PMS_P2;Temp;Humidity;BMP_temperature;BMP_pressure;BME280_temperature;BME280_humidity;BME280_pressure;Samples;Min_cycle;Max_cycle;Signal;HPM_P1;HPM_P2
2022/07/27 00:02:05;;;;;;;9.10;0.80;;;20.50;90.20;;;;;;5034957;28;20635;-75
2022/07/27 00:04:30;;;;;;;1.97;0.60;;;20.50;90.20;;;;;;5034969;28;20256;-76
2022/07/27 00:06:56;;;;;;;2.33;0.60;;;20.40;90.20;;;;;;5035154;28;20746;-77
2022/07/27 00:09:22;;;;;;;2.13;0.67;;;20.40;90.10;;;;;;5035103;28;20593;-77
2022/07/27 00:11:48;;;;;;;1.60;0.60;;;20.30;90.10;;;;;;5034957;28;20586;-76
2022/07/27 00:14:14;;;;;;;5.43;0.97;;;20.30;90.10;;;;;;5034793;28;20591;-76
2022/07/27 00:16:40;;;;;;;3.53;0.80;;;20.30;90.20;;;;;;5034974;28;21249;-76
2022/07/27 00:19:06;;;;;;;2.57;0.90;;;20.20;90.10;;;;;;5034998;28;20600;-77
2022/07/27 00:21:32;;;;;;;2.00;0.70;;;20.10;90.00;;;;;;5034777;28;20601;-77
2022/07/27 00:23:58;;;;;;;3.47;0.60;;;20.10;90.10;;;;;;5033227;28;20627;-77
2022/07/27 00:26:24;;;;;;;3.10;0.60;;;20.00;90.10;;;;;;5016776;28;20679;-77
2022/07/27 00:28:49;;;;;;;4.13;0.70;;;19.90;90.20;;;;;;5034629;28;20186;-77
2022/07/27 00:31:16;;;;;;;2.43;0.70;;;19.80;90.20;;;;;;5033317;28;20166;-76
2022/07/27 00:33:42;;;;;;;2.53;0.93;;;19.80;90.40;;;;;;5034713;28;20170;-77
2022/07/27 00:36:08;;;;;;;1.90;0.60;;;19.70;90.50;;;;;;5034177;28;20964;-77
2022/07/27 00:38:34;;;;;;;2.90;0.70;;;19.70;90.60;;;;;;5034470;28;20192;-77
2022/07/27 00:40:59;;;;;;;2.00;0.60;;;19.70;90.70;;;;;;5033116;28;20573;-77
2022/07/27 00:43:25;;;;;;;3.77;0.70;;;19.60;90.70;;;;;;5034374;28;20216;-76
2022/07/27 00:45:51;;;;;;;3.70;0.80;;;19.60;90.70;;;;;;5034004;28;20296;-76
2022/07/27 00:48:17;;;;;;;1.70;0.60;;;19.60;91.00;;;;;;5034338;28;20592;-76
2022/07/27 00:50:45;;;;;;;3.23;0.90;;;19.50;91.00;;;;;;5033892;28;20204;-76
2022/07/27 00:53:12;;;;;;;2.80;1.03;;;19.50;91.30;;;;;;5034469;28;20534;-76
2022/07/27 00:55:39;;;;;;;3.10;1.33;;;19.50;91.50;;;;;;5033807;28;20649;-76
2022/07/27 00:58:07;;;;;;;1.80;0.63;;;19.50;91.50;;;;;;5033408;28;20628;-76
2022/07/27 01:00:35;;;;;;;1.50;0.60;;;19.50;91.50;;;;;;5031851;28;20556;-76
2022/07/27 01:03:02;;;;;;;1.50;0.50;;;19.50;91.60;;;;;;5033907;28;20572;-76
2022/07/27 01:05:28;;;;;;;2.80;0.80;;;19.50;91.60;;;;;;5033927;28;20567;-76
2022/07/27 01:07:54;;;;;;;2.70;0.70;;;19.50;91.80;;;;;;5033748;28;20607;-76
2022/07/27 01:10:20;;;;;;;3.10;0.70;;;19.50;91.70;;;;;;5032458;28;20572;-77
2022/07/27 01:12:46;;;;;;;1.90;0.70;;;19.50;91.80;;;;;;5033539;28;20607;-77
2022/07/27 01:15:12;;;;;;;3.33;0.77;;;19.40;91.80;;;;;;5033572;28;20618;-77
2022/07/27 01:17:38;;;;;;;2.50;0.70;;;19.40;92.00;;;;;;5032074;28;20807;-76
2022/07/27 01:20:05;;;;;;;1.50;0.60;;;19.40;92.00;;;;;;5033550;28;20564;-76
2022/07/27 01:22:30;;;;;;;1.87;0.70;;;19.40;92.10;;;;;;5033608;28;20256;-76
2022/07/27 01:24:56;;;;;;;2.43;0.70;;;19.40;92.10;;;;;;5032139;28;21092;-76
2022/07/27 01:27:22;;;;;;;1.60;0.70;;;19.40;92.30;;;;;;5033219;28;20204;-77
2022/07/27 01:29:48;;;;;;;2.23;0.80;;;19.40;92.50;;;;;;5032394;28;20173;-77
2022/07/27 01:32:14;;;;;;;2.10;0.70;;;19.30;92.50;;;;;;5033270;28;20918;-77
2022/07/27 01:34:40;;;;;;;2.00;0.70;;;19.30;92.50;;;;;;5033411;28;20565;-77
2022/07/27 01:37:06;;;;;;;1.80;0.67;;;19.30;92.60;;;;;;5033178;28;20638;-77
2022/07/27 01:39:33;;;;;;;2.43;0.80;;;19.30;92.60;;;;;;5033256;28;20685;-77
2022/07/27 01:41:59;;;;;;;4.07;0.70;;;19.20;92.60;;;;;;5033236;28;20565;-77
2022/07/27 01:44:25;;;;;;;3.07;0.80;;;19.20;92.70;;;;;;5032972;28;20560;-77
2022/07/27 01:46:51;;;;;;;1.30;0.60;;;19.20;92.90;;;;;;5033088;28;20666;-77
2022/07/27 01:49:17;;;;;;;3.70;0.70;;;19.20;92.80;;;;;;5032928;28;20565;-77
2022/07/27 01:51:42;;;;;;;2.70;0.80;;;19.10;92.80;;;;;;5031743;28;20714;-77
2022/07/27 01:54:08;;;;;;;4.30;0.80;;;19.10;93.10;;;;;;5032962;28;20583;-77
2022/07/27 01:56:34;;;;;;;2.63;0.80;;;19.10;93.20;;;;;;5032115;28;20197;-77
2022/07/27 01:59:00;;;;;;;2.63;0.50;;;19.00;93.20;;;;;;5031090;28;20166;-77
2022/07/27 02:01:26;;;;;;;2.83;0.70;;;19.00;93.20;;;;;;5033194;28;20564;-77
2022/07/27 02:03:52;;;;;;;3.00;0.83;;;19.00;93.30;;;;;;5031692;28;20571;-77
2022/07/27 02:06:18;;;;;;;2.37;0.60;;;18.90;93.40;;;;;;5032753;28;20634;-77
2022/07/27 02:08:44;;;;;;;7.87;0.70;;;18.90;93.50;;;;;;5032748;28;20201;-77
2022/07/27 02:13:54;;;;;;;1.50;0.60;;;18.80;93.90;;;;;;5030421;28;20250;-76
2022/07/27 02:16:20;;;;;;;1.93;0.60;;;18.80;93.80;;;;;;5032179;28;20616;-76
2022/07/27 02:18:49;;;;;;;1.67;0.60;;;18.70;93.90;;;;;;5032606;28;20235;-76
2022/07/27 02:21:15;;;;;;;2.67;0.80;;;18.70;94.00;;;;;;5032306;28;20579;-77
2022/07/27 02:23:43;;;;;;;2.17;0.50;;;18.70;93.90;;;;;;5032579;28;20565;-77
2022/07/27 02:26:09;;;;;;;1.67;0.60;;;18.60;94.00;;;;;;5014260;28;20174;-77
2022/07/27 02:28:36;;;;;;;2.20;0.60;;;18.60;94.20;;;;;;5032407;28;20953;-77
2022/07/27 02:31:01;;;;;;;1.83;0.70;;;18.50;94.20;;;;;;5030995;28;20572;-77
2022/07/27 02:33:28;;;;;;;2.40;0.60;;;18.40;94.70;;;;;;5030962;28;20591;-77
2022/07/27 02:35:53;;;;;;;2.37;0.70;;;18.40;94.30;;;;;;5032028;28;21352;-77
2022/07/27 02:38:19;;;;;;;1.47;0.60;;;18.40;94.40;;;;;;5032178;28;20608;-76
2022/07/27 02:40:45;;;;;;;3.97;0.80;;;18.30;94.50;;;;;;5030963;28;20549;-76
2022/07/27 02:43:11;;;;;;;7.13;0.83;;;18.30;94.60;;;;;;5032239;28;20173;-76
2022/07/27 02:45:37;;;;;;;2.57;0.60;;;18.20;94.70;;;;;;5030583;28;20587;-76
2022/07/27 02:48:03;;;;;;;1.90;0.90;;;18.10;94.70;;;;;;5031992;28;20600;-76
2022/07/27 02:50:29;;;;;;;4.37;0.60;;;18.10;94.80;;;;;;5031881;28;20312;-76
2022/07/27 02:52:55;;;;;;;1.30;0.50;;;18.10;95.00;;;;;;5031959;28;20568;-77
2022/07/27 02:55:20;;;;;;;3.00;0.70;;;18.00;95.00;;;;;;5031748;28;20158;-77
2022/07/27 02:57:46;;;;;;;3.07;0.70;;;18.00;95.20;;;;;;5031671;28;20197;-76
2022/07/27 03:00:14;;;;;;;2.93;0.97;;;18.00;95.50;;;;;;5031745;28;20261;-76
2022/07/27 03:02:41;;;;;;;5.33;0.80;;;18.00;95.60;;;;;;5031738;28;20526;-77
2022/07/27 03:05:08;;;;;;;2.70;0.70;;;18.00;95.70;;;;;;5031538;28;20561;-76
2022/07/27 03:07:34;;;;;;;1.80;0.60;;;17.90;95.70;;;;;;5031655;28;20596;-76
2022/07/27 03:10:00;;;;;;;2.57;0.50;;;17.90;95.80;;;;;;5030479;28;20578;-77
2022/07/27 03:12:26;;;;;;;1.80;0.70;;;17.90;96.00;;;;;;5031704;28;20600;-77
2022/07/27 03:14:52;;;;;;;2.50;0.87;;;17.90;96.10;;;;;;5030164;28;20604;-76
2022/07/27 03:17:18;;;;;;;1.93;0.70;;;17.90;96.20;;;;;;5031464;28;20267;-76
2022/07/27 03:19:44;;;;;;;2.13;0.70;;;17.90;96.20;;;;;;5031890;28;20176;-76
2022/07/27 03:22:10;;;;;;;3.83;0.73;;;17.80;96.30;;;;;;5031279;28;20660;-77
2022/07/27 03:24:35;;;;;;;1.80;0.70;;;17.80;96.40;;;;;;5013399;28;21179;-77
2022/07/27 03:27:02;;;;;;;1.80;0.60;;;17.80;96.60;;;;;;5030121;28;20215;-76
2022/07/27 03:29:27;;;;;;;2.50;0.90;;;17.80;96.90;;;;;;5031398;28;20260;-77
2022/07/27 03:31:53;;;;;;;3.80;0.80;;;17.70;97.00;;;;;;5030244;28;20663;-77
2022/07/27 03:34:19;;;;;;;3.20;0.70;;;17.70;97.10;;;;;;5029754;28;20182;-76
2022/07/27 03:36:45;;;;;;;2.33;0.93;;;17.70;97.20;;;;;;5031369;28;20189;-76
2022/07/27 03:39:12;;;;;;;3.47;0.97;;;17.60;97.30;;;;;;5031440;28;21092;-77
2022/07/27 03:41:38;;;;;;;4.60;0.80;;;17.60;97.40;;;;;;5031176;28;20564;-77
2022/07/27 03:44:04;;;;;;;2.87;1.00;;;17.50;97.40;;;;;;5031079;28;20564;-77
2022/07/27 03:46:33;;;;;;;2.47;0.80;;;17.50;97.60;;;;;;5031307;28;20572;-77
2022/07/27 03:48:59;;;;;;;2.17;0.70;;;17.50;97.90;;;;;;5031330;28;20999;-76
2022/07/27 03:51:25;;;;;;;2.83;0.60;;;17.50;98.00;;;;;;5029832;28;20731;-76
2022/07/27 03:53:51;;;;;;;4.00;0.90;;;17.40;98.10;;;;;;5031284;28;20940;-76
2022/07/27 04:01:02;;;;;;;2.80;0.70;;;17.30;98.50;;;;;;5011498;28;20561;-75
2022/07/27 04:03:56;;;;;;;3.13;0.93;;;17.30;98.50;;;;;;4994161;28;20946;-77
2022/07/27 04:06:22;;;;;;;4.50;1.03;;;17.30;98.30;;;;;;5030951;28;20572;-76
2022/07/27 04:08:48;;;;;;;2.50;0.90;;;17.20;98.50;;;;;;5031376;28;20204;-77
2022/07/27 04:11:14;;;;;;;1.70;0.60;;;17.20;98.60;;;;;;5030957;28;20663;-77
2022/07/27 04:13:42;;;;;;;2.53;1.23;;;17.20;98.90;;;;;;5031194;28;20304;-76
2022/07/27 04:16:07;;;;;;;2.07;0.80;;;17.20;99.10;;;;;;5029620;28;20273;-76
2022/07/27 04:18:33;;;;;;;2.17;0.70;;;17.10;99.20;;;;;;5031129;28;20691;-77
2022/07/27 04:21:02;;;;;;;2.90;0.90;;;17.10;99.30;;;;;;5031037;28;20220;-77
2022/07/27 04:23:28;;;;;;;1.70;0.70;;;17.10;99.40;;;;;;5031127;28;20169;-77
2022/07/27 04:25:54;;;;;;;3.60;0.90;;;17.10;99.50;;;;;;5030943;28;20579;-77
2022/07/27 04:28:19;;;;;;;2.23;0.80;;;17.10;99.60;;;;;;5030705;28;21015;-78
2022/07/27 04:30:45;;;;;;;3.13;0.90;;;17.10;99.80;;;;;;5030903;28;20185;-77
2022/07/27 04:33:11;;;;;;;1.73;0.80;;;17.10;99.90;;;;;;5031201;28;20714;-77
2022/07/27 04:35:37;;;;;;;2.47;0.80;;;17.10;99.90;;;;;;5029586;28;20533;-77
2022/07/27 04:38:02;;;;;;;3.33;1.00;;;17.10;99.90;;;;;;5033407;28;20209;-79
2022/07/27 04:40:34;;;;;;;3.70;1.20;;;17.10;99.90;;;;;;5037186;28;20166;-79
2022/07/27 04:43:02;;;;;;;2.23;0.83;;;17.10;99.90;;;;;;5037197;28;20169;-80
2022/07/27 04:45:28;;;;;;;3.50;1.60;;;17.10;99.90;;;;;;5035942;28;20576;-80
2022/07/27 04:47:54;;;;;;;4.70;1.10;;;17.10;99.90;;;;;;5043426;28;20622;-80
2022/07/27 04:50:20;;;;;;;2.77;0.93;;;17.10;99.90;;;;;;5046021;28;20595;-79
2022/07/27 04:52:46;;;;;;;3.53;0.93;;;17.10;99.90;;;;;;5054503;28;20603;-81
2022/07/27 04:55:11;;;;;;;2.90;0.90;;;17.10;99.90;;;;;;5056281;28;21010;-80
2022/07/27 04:57:40;;;;;;;2.00;0.77;;;17.10;99.90;;;;;;5047567;28;20206;-81
2022/07/27 05:00:07;;;;;;;10.73;1.20;;;17.10;99.90;;;;;;5032037;28;20178;-80
2022/07/27 05:02:33;;;;;;;2.50;1.00;;;17.10;99.90;;;;;;5034115;28;20564;-78
2022/07/27 05:04:59;;;;;;;2.63;1.00;;;17.20;99.90;;;;;;5033566;28;20596;-79
2022/07/27 05:07:25;;;;;;;3.73;1.03;;;17.20;99.90;;;;;;5043627;28;20716;-79
2022/07/27 05:09:51;;;;;;;1.67;0.80;;;17.20;99.90;;;;;;5052110;28;20644;-79
2022/07/27 05:12:17;;;;;;;2.40;1.30;;;17.30;99.90;;;;;;5045101;28;20572;-79
2022/07/27 05:14:42;;;;;;;3.10;1.10;;;17.30;99.90;;;;;;5053358;28;20165;-79
2022/07/27 05:17:09;;;;;;;5.20;1.20;;;17.30;99.90;;;;;;5053762;28;20243;-79
2022/07/27 05:19:34;;;;;;;1.97;0.87;;;17.30;99.90;;;;;;5035865;28;20226;-79
2022/07/27 05:22:00;;;;;;;3.20;1.20;;;17.40;99.90;;;;;;5052159;28;20572;-79
2022/07/27 05:24:26;;;;;;;3.37;0.73;;;17.40;99.90;;;;;;5052103;28;20169;-79
2022/07/27 05:26:52;;;;;;;3.90;1.33;;;17.40;99.90;;;;;;5053406;28;20619;-79
2022/07/27 05:29:18;;;;;;;3.67;1.10;;;17.40;99.90;;;;;;5053646;28;20260;-80
2022/07/27 05:31:44;;;;;;;5.97;1.10;;;17.50;99.90;;;;;;5052031;28;20204;-79
2022/07/27 05:34:09;;;;;;;2.80;1.00;;;17.50;99.90;;;;;;5052288;28;20572;-77
2022/07/27 05:36:35;;;;;;;2.37;1.00;;;17.50;99.90;;;;;;5053200;28;20204;-79
2022/07/27 05:39:01;;;;;;;3.47;1.07;;;17.60;99.90;;;;;;5053555;28;20250;-79
2022/07/27 05:41:27;;;;;;;5.43;1.23;;;17.70;99.90;;;;;;5051923;28;20180;-78
2022/07/27 05:43:55;;;;;;;4.00;1.07;;;17.80;99.90;;;;;;5052254;28;21159;-79
2022/07/27 05:46:22;;;;;;;2.60;1.10;;;17.80;99.90;;;;;;5040456;28;20587;-79
2022/07/27 05:48:48;;;;;;;5.37;1.30;;;17.90;99.90;;;;;;5053402;28;20591;-79
2022/07/27 05:51:14;;;;;;;2.37;0.90;;;17.90;99.90;;;;;;5052845;28;20579;-79
2022/07/27 05:53:40;;;;;;;3.23;1.07;;;18.00;99.90;;;;;;5053258;28;20571;-79
2022/07/27 05:56:09;;;;;;;2.87;1.40;;;18.00;99.90;;;;;;5052796;28;20563;-79
2022/07/27 05:58:35;;;;;;;2.63;0.90;;;18.20;99.90;;;;;;5052987;28;20256;-78
2022/07/27 06:01:00;;;;;;;1.90;1.00;;;18.70;99.90;;;;;;5052904;28;20572;-78
2022/07/27 06:03:26;;;;;;;2.90;1.33;;;19.50;99.90;;;;;;5052860;28;20579;-78
2022/07/27 06:07:57;;;;;;;3.50;1.23;;;20.50;99.90;;;;;;5052643;28;20575;-77
2022/07/27 06:08:38;;;;;;;2.10;0.80;;;21.60;99.90;;;;;;5048593;28;20659;-77
2022/07/27 06:11:04;;;;;;;3.50;1.30;;;22.80;99.90;;;;;;5041954;28;20643;-78
2022/07/27 06:13:30;;;;;;;3.30;0.90;;;23.90;99.90;;;;;;5052578;28;20161;-78
2022/07/27 06:15:56;;;;;;;3.10;1.07;;;25.00;99.90;;;;;;5052425;28;20262;-78
2022/07/27 06:18:21;;;;;;;4.00;1.20;;;26.00;99.90;;;;;;5052404;28;21046;-78
2022/07/27 06:20:49;;;;;;;2.83;0.90;;;26.80;99.60;;;;;;5051343;28;20644;-78
2022/07/27 06:23:15;;;;;;;3.10;1.00;;;27.80;98.60;;;;;;5057028;28;20170;-78
2022/07/27 06:25:41;;;;;;;2.33;0.93;;;28.60;97.10;;;;;;5052228;28;20579;-77
2022/07/27 06:28:07;;;;;;;3.70;1.00;;;29.50;96.00;;;;;;5052288;28;20197;-78
2022/07/27 06:30:36;;;;;;;2.77;0.90;;;30.20;94.60;;;;;;5051092;28;20181;-77
2022/07/27 06:33:05;;;;;;;4.07;1.20;;;31.00;92.90;;;;;;5052209;28;20567;-78
2022/07/27 06:35:31;;;;;;;1.70;0.80;;;31.60;91.40;;;;;;5051973;28;20165;-78
2022/07/27 06:37:57;;;;;;;2.37;0.80;;;31.90;88.80;;;;;;5051944;28;20631;-78
2022/07/27 06:40:23;;;;;;;4.40;0.90;;;32.20;85.70;;;;;;5052096;28;20570;-80
2022/07/27 06:42:49;;;;;;;2.57;0.87;;;32.60;82.90;;;;;;5051615;28;20657;-78
2022/07/27 06:45:15;;;;;;;2.10;0.90;;;32.90;79.10;;;;;;5051402;28;20166;-79
2022/07/27 06:47:41;;;;;;;1.90;0.60;;;33.10;76.50;;;;;;5051857;28;20199;-78
2022/07/27 06:50:07;;;;;;;3.97;1.00;;;33.50;74.20;;;;;;5050876;28;20581;-79
2022/07/27 06:52:34;;;;;;;4.93;0.73;;;33.50;70.20;;;;;;5051967;28;20584;-79
2022/07/27 06:55:00;;;;;;;2.20;0.80;;;33.60;69.60;;;;;;5051633;28;20616;-78
2022/07/27 06:57:27;;;;;;;2.87;0.70;;;33.80;67.30;;;;;;5051909;28;20741;-78
2022/07/27 06:59:52;;;;;;;1.77;0.60;;;33.50;64.90;;;;;;5055306;28;20616;-78
2022/07/27 07:02:18;;;;;;;2.10;0.70;;;33.20;59.90;;;;;;5052090;28;20176;-78
2022/07/27 07:04:44;;;;;;;3.00;0.80;;;32.60;59.20;;;;;;5050379;28;20279;-78
2022/07/27 07:07:10;;;;;;;3.80;0.60;;;32.40;59.20;;;;;;5050389;28;20712;-78
2022/07/27 07:09:36;;;;;;;4.33;0.70;;;32.60;59.90;;;;;;5051620;28;20169;-78
2022/07/27 07:12:02;;;;;;;1.77;0.60;;;32.50;58.10;;;;;;5051746;28;20617;-78
2022/07/27 07:14:28;;;;;;;2.27;0.60;;;32.30;57.80;;;;;;5051487;28;20504;-78
2022/07/27 07:16:54;;;;;;;2.60;0.70;;;32.20;57.70;;;;;;5051354;28;21195;-77
2022/07/27 07:19:20;;;;;;;1.97;0.60;;;32.30;58.50;;;;;;5050403;28;20714;-78
2022/07/27 07:21:46;;;;;;;1.50;0.50;;;32.00;56.00;;;;;;5051587;28;20167;-77
2022/07/27 07:24:12;;;;;;;1.90;0.60;;;31.80;55.60;;;;;;5044802;28;20593;-77
2022/07/27 07:26:38;;;;;;;2.03;0.57;;;31.80;55.90;;;;;;5036727;28;20615;-77
2022/07/27 07:29:05;;;;;;;2.33;0.60;;;31.50;55.10;;;;;;5048653;28;20583;-78
2022/07/27 07:31:31;;;;;;;1.60;0.60;;;31.20;55.30;;;;;;5048013;28;20585;-78
2022/07/27 07:33:58;;;;;;;2.43;0.80;;;30.90;54.20;;;;;;5032327;28;20568;-77
2022/07/27 07:36:24;;;;;;;2.80;0.83;;;30.80;55.00;;;;;;5036385;28;20595;-77
2022/07/27 07:38:50;;;;;;;1.50;0.60;;;30.80;55.00;;;;;;5035967;28;20593;-77
2022/07/27 07:41:16;;;;;;;2.23;0.60;;;31.00;55.00;;;;;;5045684;28;20582;-76
2022/07/27 07:43:42;;;;;;;1.87;0.50;;;31.30;55.20;;;;;;5054360;28;20537;-78
2022/07/27 07:46:08;;;;;;;3.23;0.57;;;31.60;55.10;;;;;;5054314;28;20560;-77
2022/07/27 07:48:34;;;;;;;1.30;0.60;;;32.10;55.50;;;;;;5055248;28;20193;-77
2022/07/27 07:51:00;;;;;;;1.60;0.60;;;32.70;55.20;;;;;;5052371;28;20168;-78
2022/07/27 07:53:26;;;;;;;2.03;0.60;;;33.50;54.50;;;;;;5052803;28;20185;-78
2022/07/27 07:55:54;;;;;;;2.10;0.50;;;34.10;53.80;;;;;;5059799;28;20563;-77
2022/07/27 07:58:20;;;;;;;1.40;0.50;;;34.80;54.20;;;;;;5043359;28;20215;-76
2022/07/27 08:00:46;;;;;;;2.10;0.50;;;35.50;53.00;;;;;;5038323;28;20560;-77
2022/07/27 08:03:13;;;;;;;2.53;0.50;;;36.10;51.20;;;;;;5049130;28;20176;-76
2022/07/27 08:05:38;;;;;;;2.63;0.50;;;36.60;50.30;;;;;;5056499;28;20588;-75
2022/07/27 08:08:04;;;;;;;1.63;0.60;;;37.10;49.20;;;;;;5054033;28;20618;-77
2022/07/27 08:10:30;;;;;;;1.73;0.60;;;37.60;48.30;;;;;;5051391;28;20660;-76
2022/07/27 08:12:56;;;;;;;2.47;0.60;;;37.90;46.90;;;;;;5057097;28;20245;-76
2022/07/27 08:15:23;;;;;;;1.90;0.57;;;38.10;46.10;;;;;;5057142;28;20598;-77
2022/07/27 08:17:49;;;;;;;1.87;0.60;;;38.20;44.70;;;;;;5054682;28;21003;-76
2022/07/27 08:20:16;;;;;;;1.70;0.60;;;37.80;43.80;;;;;;5054819;28;20650;-77
2022/07/27 08:22:43;;;;;;;4.03;0.50;;;37.20;42.80;;;;;;5054854;28;20253;-76
2022/07/27 08:25:10;;;;;;;1.90;0.60;;;36.60;42.70;;;;;;5054600;28;20579;-77
2022/07/27 08:27:37;;;;;;;3.27;0.60;;;36.10;42.30;;;;;;5046239;28;20646;-76
2022/07/27 08:30:05;;;;;;;2.83;0.80;;;35.60;42.30;;;;;;5035870;28;20585;-76
2022/07/27 08:32:31;;;;;;;5.07;0.70;;;34.90;42.10;;;;;;5054403;28;20654;-76
2022/07/27 08:34:56;;;;;;;2.37;0.50;;;34.60;43.10;;;;;;5049647;28;20962;-76
2022/07/27 08:37:22;;;;;;;2.23;0.60;;;34.30;43.50;;;;;;5034355;28;20650;-76
2022/07/27 08:39:48;;;;;;;2.33;0.60;;;33.90;42.80;;;;;;5034321;28;20173;-75
2022/07/27 08:42:16;;;;;;;2.03;0.63;;;33.70;42.80;;;;;;5033359;28;20256;-77
2022/07/27 08:44:43;;;;;;;3.77;0.60;;;33.60;43.10;;;;;;5047335;28;20198;-78
2022/07/27 08:47:10;;;;;;;1.50;0.50;;;33.20;42.30;;;;;;5054543;28;20591;-77
2022/07/27 08:49:40;;;;;;;3.20;0.57;;;32.70;42.10;;;;;;5056287;28;21021;-77
2022/07/27 08:52:11;;;;;;;2.13;0.57;;;32.10;42.10;;;;;;5056739;28;20649;-77
2022/07/27 08:54:39;;;;;;;1.43;0.60;;;31.60;42.30;;;;;;5036001;28;20594;-77
2022/07/27 08:57:07;;;;;;;7.03;0.60;;;31.50;43.50;;;;;;5053970;28;20717;-77
2022/07/27 08:59:32;;;;;;;2.03;0.40;;;31.70;44.50;;;;;;5054022;28;20573;-77
2022/07/27 09:01:58;;;;;;;1.33;0.50;;;32.40;46.00;;;;;;5036404;28;21048;-77
2022/07/27 09:04:25;;;;;;;1.40;0.50;;;33.10;45.40;;;;;;5033729;28;20594;-76
2022/07/27 09:06:51;;;;;;;3.03;0.70;;;33.80;44.90;;;;;;5032760;28;20220;-77
2022/07/27 09:09:19;;;;;;;1.40;0.60;;;34.50;44.60;;;;;;5032868;28;20616;-77
2022/07/27 09:12:08;;;;;;;1.50;0.60;;;35.10;44.00;;;;;;5032462;28;20576;-77
2022/07/27 09:14:37;;;;;;;1.60;0.50;;;35.20;42.50;;;;;;5033677;28;20593;-77
2022/07/27 09:17:26;;;;;;;1.53;0.60;;;34.90;41.10;;;;;;5033661;28;21026;-77
2022/07/27 09:19:57;;;;;;;3.60;0.63;;;34.60;40.90;;;;;;5033637;28;20567;-76
2022/07/27 09:22:41;;;;;;;6.13;0.60;;;34.70;40.60;;;;;;5033409;28;20567;-78
2022/07/27 09:25:08;;;;;;;2.17;0.70;;;35.00;41.40;;;;;;5033431;28;20633;-78
2022/07/27 09:27:35;;;;;;;1.50;0.40;;;35.40;41.90;;;;;;5038954;28;21035;-78
2022/07/27 09:30:05;;;;;;;1.47;0.50;;;35.90;41.80;;;;;;5033387;28;20607;-77
2022/07/27 09:32:31;;;;;;;3.43;0.57;;;36.10;40.70;;;;;;5033517;28;20611;-79
2022/07/27 09:34:57;;;;;;;2.17;0.60;;;35.90;39.60;;;;;;5040249;28;20591;-76
2022/07/27 09:37:27;;;;;;;1.47;0.40;;;35.80;39.50;;;;;;5053033;28;20661;-76
2022/07/27 09:40:13;;;;;;;2.10;0.50;;;35.90;39.50;;;;;;5051928;28;20575;-78
2022/07/27 09:42:39;;;;;;;1.90;0.50;;;35.90;38.80;;;;;;5053328;28;20688;-77
2022/07/27 09:45:27;;;;;;;2.60;0.60;;;35.70;38.90;;;;;;5051714;28;21203;-75
2022/07/27 09:48:08;;;;;;;1.50;0.50;;;35.90;39.00;;;;;;5052956;28;20614;-75
2022/07/27 09:50:34;;;;;;;1.77;0.60;;;35.90;38.20;;;;;;5053203;28;20582;-75
2022/07/27 09:53:21;;;;;;;1.40;0.50;;;36.10;36.90;;;;;;5053020;28;20906;-75
2022/07/27 09:56:01;;;;;;;1.97;0.50;;;36.10;36.70;;;;;;5051674;28;20891;-75
2022/07/27 09:58:44;;;;;;;1.27;0.50;;;35.80;36.90;;;;;;5052814;28;20755;-75
2022/07/27 10:01:22;;;;;;;1.30;0.50;;;35.40;37.00;;;;;;5052930;28;20571;-75
2022/07/27 10:03:50;;;;;;;1.20;0.40;;;34.90;36.00;;;;;;5051503;28;20955;-75
2022/07/27 10:06:16;;;;;;;2.50;0.60;;;34.30;36.20;;;;;;5052691;28;20591;-75
2022/07/27 10:08:45;;;;;;;1.30;0.50;;;33.60;36.40;;;;;;5052737;28;20600;-75
2022/07/27 10:11:12;;;;;;;1.50;0.50;;;33.10;36.60;;;;;;5042157;28;20655;-75
2022/07/27 10:13:38;;;;;;;1.70;0.60;;;32.50;36.90;;;;;;5030193;28;20596;-75
2022/07/27 10:16:05;;;;;;;1.90;0.50;;;32.10;37.10;;;;;;5031691;28;20591;-75
2022/07/27 10:18:50;;;;;;;1.60;0.60;;;31.50;36.80;;;;;;5032764;28;20649;-75
2022/07/27 10:21:16;;;;;;;1.60;0.57;;;31.00;37.00;;;;;;5018949;28;20675;-76
2022/07/27 10:24:00;;;;;;;1.40;0.50;;;30.40;37.20;;;;;;5046228;28;20589;-75
2022/07/27 10:26:32;;;;;;;2.07;0.70;;;29.80;37.60;;;;;;5012641;28;21019;-76
2022/07/27 10:29:05;;;;;;;1.60;0.80;;;29.30;38.50;;;;;;5012558;28;20605;-75
2022/07/27 10:31:36;;;;;;;1.30;0.50;;;28.90;38.30;;;;;;5012529;28;20575;-75
2022/07/27 10:34:06;;;;;;;1.90;0.63;;;28.50;38.80;;;;;;5010182;28;20613;-75
2022/07/27 10:36:31;;;;;;;4.50;0.70;;;28.30;39.40;;;;;;5012748;28;20565;-75
2022/07/27 10:39:00;;;;;;;1.40;0.50;;;28.10;39.80;;;;;;5012386;28;20994;-76
2022/07/27 10:41:39;;;;;;;1.43;0.63;;;28.00;40.10;;;;;;5011256;28;20179;-74
2022/07/27 10:44:16;;;;;;;1.67;0.70;;;28.10;40.90;;;;;;5012123;28;20604;-76
2022/07/27 10:47:01;;;;;;;4.57;0.80;;;28.30;42.30;;;;;;5012533;28;20569;-75
2022/07/27 10:49:33;;;;;;;1.57;0.60;;;29.00;42.00;;;;;;5012867;28;20569;-75
2022/07/27 10:52:00;;;;;;;7.53;0.60;;;29.70;41.80;;;;;;5010465;28;20631;-76
2022/07/27 10:54:37;;;;;;;5.00;0.70;;;30.30;42.50;;;;;;5012157;28;20579;-76
2022/07/27 10:57:06;;;;;;;2.10;0.53;;;31.00;42.50;;;;;;5011105;28;20620;-76
2022/07/27 10:59:42;;;;;;;1.83;0.50;;;31.60;41.70;;;;;;5012118;28;20574;-76
2022/07/27 11:02:13;;;;;;;1.50;0.60;;;32.10;40.60;;;;;;5012294;28;20561;-75
2022/07/27 11:04:47;;;;;;;1.77;0.60;;;32.20;39.50;;;;;;5011823;28;21191;-76
2022/07/27 11:07:19;;;;;;;4.70;0.60;;;32.30;38.90;;;;;;5012242;28;20957;-75
2022/07/27 11:09:47;;;;;;;1.50;0.60;;;32.30;39.00;;;;;;5012002;28;20590;-75
2022/07/27 11:12:15;;;;;;;1.70;0.80;;;32.30;38.90;;;;;;5012101;28;20918;-76
2022/07/27 11:14:53;;;;;;;2.23;0.60;;;32.30;38.70;;;;;;5011652;28;20593;-75
2022/07/27 11:17:25;;;;;;;1.60;0.60;;;32.20;37.90;;;;;;5011746;28;20683;-75
2022/07/27 11:19:57;;;;;;;1.40;0.70;;;32.10;37.70;;;;;;5011777;28;20561;-75
2022/07/27 11:22:33;;;;;;;1.50;0.60;;;31.70;37.00;;;;;;5011987;28;20573;-75
2022/07/27 11:25:00;;;;;;;1.40;0.60;;;31.30;37.20;;;;;;5011753;28;20579;-75
2022/07/27 11:27:27;;;;;;;1.80;0.77;;;30.90;37.00;;;;;;5011549;28;20620;-75
2022/07/27 11:29:53;;;;;;;4.10;0.70;;;30.40;37.10;;;;;;5011583;28;20573;-75
2022/07/27 11:32:20;;;;;;;1.80;0.63;;;30.10;37.50;;;;;;5011734;28;20566;-75
2022/07/27 11:34:46;;;;;;;1.43;0.60;;;29.90;37.90;;;;;;5010207;28;20569;-76
2022/07/27 11:37:22;;;;;;;1.30;0.50;;;29.90;38.80;;;;;;5011589;28;20637;-75
2022/07/27 11:39:57;;;;;;;2.77;0.60;;;30.00;39.40;;;;;;5010501;28;20932;-75
2022/07/27 11:42:23;;;;;;;2.57;1.27;;;30.10;39.10;;;;;;5011847;28;21165;-75
2022/07/27 11:44:51;;;;;;;3.60;0.60;;;30.20;39.30;;;;;;5011706;28;21144;-75
2022/07/27 11:47:18;;;;;;;1.87;0.70;;;30.20;39.10;;;;;;5014262;28;20696;-75
2022/07/27 11:49:44;;;;;;;1.40;0.60;;;30.00;39.20;;;;;;5015364;28;20573;-75
2022/07/27 11:52:11;;;;;;;2.57;0.80;;;30.00;39.60;;;;;;5015518;28;20569;-76
2022/07/27 11:54:40;;;;;;;3.27;0.80;;;29.90;39.40;;;;;;5015257;28;20177;-76
2022/07/27 11:57:12;;;;;;;2.57;1.10;;;29.90;40.00;;;;;;5015549;28;20731;-75
2022/07/27 11:59:43;;;;;;;1.87;0.80;;;30.10;40.20;;;;;;5015696;28;20580;-75
2022/07/27 12:02:17;;;;;;;2.53;0.80;;;30.40;40.40;;;;;;5015998;28;20649;-74
2022/07/27 12:04:44;;;;;;;2.30;1.07;;;30.70;40.70;;;;;;5015136;28;20565;-74
2022/07/27 12:07:13;;;;;;;2.83;1.00;;;31.00;39.90;;;;;;5015629;28;20672;-76
2022/07/27 12:09:44;;;;;;;2.50;1.30;;;31.00;38.90;;;;;;5014370;28;20975;-75
2022/07/27 12:12:24;;;;;;;2.40;1.23;;;31.00;38.90;;;;;;5015575;28;20615;-76
2022/07/27 12:14:55;;;;;;;4.33;1.00;;;30.90;38.60;;;;;;5014961;28;20576;-76
2022/07/27 12:17:30;;;;;;;2.30;0.93;;;30.90;38.70;;;;;;5015159;28;20719;-75
2022/07/27 12:20:19;;;;;;;2.77;1.07;;;30.90;39.10;;;;;;5014279;28;20569;-76
2022/07/27 12:22:48;;;;;;;1.80;0.90;;;30.90;39.60;;;;;;5015230;28;20568;-75
2022/07/27 12:25:16;;;;;;;2.57;0.63;;;30.80;39.20;;;;;;5014999;28;20561;-76
2022/07/27 12:28:01;;;;;;;1.50;0.60;;;30.70;39.20;;;;;;5015024;28;20952;-76
2022/07/27 12:30:27;;;;;;;2.30;0.60;;;30.50;38.60;;;;;;5014792;28;20557;-76
2022/07/27 12:32:53;;;;;;;1.90;0.80;;;30.40;38.90;;;;;;5015309;28;21017;-75
2022/07/27 12:35:26;;;;;;;2.10;0.77;;;30.20;38.70;;;;;;5015042;28;20734;-75
2022/07/27 12:38:01;;;;;;;3.20;0.70;;;30.00;38.60;;;;;;5030175;28;20209;-75
2022/07/27 12:40:28;;;;;;;2.37;0.80;;;29.80;38.80;;;;;;5014874;28;20560;-75
2022/07/27 12:43:05;;;;;;;2.27;0.70;;;29.60;38.90;;;;;;5015874;28;21258;-75
2022/07/27 12:45:33;;;;;;;2.07;0.60;;;29.40;39.80;;;;;;5014508;28;20557;-75
2022/07/27 12:48:07;;;;;;;1.47;0.60;;;29.40;39.80;;;;;;5014428;28;20601;-75
2022/07/27 12:50:33;;;;;;;1.73;0.70;;;29.20;39.50;;;;;;5014182;28;20565;-75
2022/07/27 12:53:00;;;;;;;1.93;0.70;;;28.90;38.20;;;;;;5014298;28;20572;-75
2022/07/27 12:55:26;;;;;;;1.70;0.70;;;28.60;38.10;;;;;;5014178;28;20569;-74
2022/07/27 12:57:52;;;;;;;2.37;0.60;;;28.20;38.30;;;;;;5013404;28;20625;-75
2022/07/27 13:00:19;;;;;;;2.07;0.80;;;28.10;38.80;;;;;;5014320;28;20198;-75